Time;durP1;ratioP1;P1;durP2;ratioP2;P2;SDS_P1;SDS_P2;PMS_P1;PMS_P2;Temp;Humidity;BMP_temperature;BMP_pressure;BME280_temperature;BME280_humidity;BME280_pressure;Samples;Min_cycle;Max_cycle;Signal;HPM_P1;HPM_P2
2022/02/12 00:01:13;;;;;;;;;;;;;;;;;;5005691;28;19967;-56
2022/02/12 00:03:38;;;;;;;;;;;;;;;;;;5001873;28;19981;-55
2022/02/12 00:06:04;;;;;;;;;;;;;;;;;;4998589;28;19922;-56
2022/02/12 00:08:30;;;;;;;;;;;;;;;;;;4997139;28;19956;-55
2022/02/12 00:10:56;;;;;;;;;;;;;;;;;;4998459;28;19921;-53
2022/02/12 00:13:21;;;;;;;;;;;;;;;;;;4997768;28;20428;-55
2022/02/12 00:15:53;;;;;;;;;;;;;;;;;;4998077;28;21746;-58
2022/02/12 00:18:18;;;;;;;;;;;;;;;;;;4994592;28;19969;-55
2022/02/12 00:20:44;;;;;;;;;;;;;;;;;;4997021;28;20029;-53
2022/02/12 00:23:09;;;;;;;;;;;;;;;;;;4996585;28;20472;-55
2022/02/12 00:25:35;;;;;;;;;;;;;;;;;;4995752;28;19965;-55
2022/02/12 00:28:00;;;;;;;;;;;;;;;;;;4996230;28;19925;-53
2022/02/12 00:30:27;;;;;;;;;;;;;;;;;;4994653;28;19921;-55
2022/02/12 00:32:53;;;;;;;;;;;;;;;;;;4997179;28;20415;-55
2022/02/12 00:35:18;;;;;;;;;;;;;;;;;;4995106;28;20020;-55
2022/02/12 00:37:44;;;;;;;;;;;;;;;;;;5005494;28;20326;-55
2022/02/12 00:40:09;;;;;;;;;;;;;;;;;;4991560;28;19925;-55
2022/02/12 00:42:35;;;;;;;;;;;;;;;;;;4981680;28;19929;-57
2022/02/12 00:45:00;;;;;;;;;;;;;;;;;;4980722;28;19933;-54
2022/02/12 00:47:28;;;;;;;;;;;;;;;;;;4980924;28;20595;-57
2022/02/12 00:49:53;;;;;;;;;;;;;;;;;;4980313;28;19929;-56
2022/02/12 00:52:19;;;;;;;;;;;;;;;;;;4980479;28;19930;-55
2022/02/12 00:54:44;;;;;;;;;;;;;;;;;;4980022;28;19937;-56
2022/02/12 00:57:10;;;;;;;;;;;;;;;;;;4980486;28;20523;-56
2022/02/12 00:59:35;;;;;;;;;;;;;;;;;;4979769;28;19926;-55
2022/02/12 01:02:01;;;;;;;;;;;;;;;;;;4979722;28;20969;-55
2022/02/12 01:04:26;;;;;;;;;;;;;;;;;;4972517;28;20088;-55
2022/02/12 01:06:51;;;;;;;;;;;;;;;;;;4980754;28;19922;-55
2022/02/12 01:09:17;;;;;;;;;;;;;;;;;;4979114;28;20927;-53
2022/02/12 01:11:42;;;;;;;;;;;;;;;;;;4981616;28;19929;-54
2022/02/12 01:14:12;;;;;;;;;;;;;;;;;;4981512;28;19926;-57
2022/02/12 01:16:37;;;;;;;;;;;;;;;;;;4972013;28;20438;-57
2022/02/12 01:19:03;;;;;;;;;;;;;;;;;;4979908;28;19926;-55
2022/02/12 01:21:29;;;;;;;;;;;;;;;;;;4979350;28;19917;-57
2022/02/12 01:23:55;;;;;;;;;;;;;;;;;;4970171;28;20394;-56
2022/02/12 01:26:21;;;;;;;;;;;;;;;;;;4977825;28;19984;-55
2022/02/12 01:28:46;;;;;;;;;;;;;;;;;;4973501;28;20012;-57
2022/02/12 01:31:12;;;;;;;;;;;;;;;;;;4978393;28;19930;-56
2022/02/12 01:33:37;;;;;;;;;;;;;;;;;;4973121;28;19933;-56
2022/02/12 01:36:03;;;;;;;;;;;;;;;;;;4977972;28;19972;-54
2022/02/12 01:38:29;;;;;;;;;;;;;;;;;;4978706;28;19921;-53
2022/02/12 01:40:54;;;;;;;;;;;;;;;;;;4974843;28;20697;-55
2022/02/12 01:43:20;;;;;;;;;;;;;;;;;;4978547;28;19929;-53
2022/02/12 01:45:45;;;;;;;;;;;;;;;;;;4979532;28;20055;-55
2022/02/12 01:48:11;;;;;;;;;;;;;;;;;;4979085;28;19972;-56
2022/02/12 01:50:36;;;;;;;;;;;;;;;;;;4979722;28;21105;-55
2022/02/12 01:53:02;;;;;;;;;;;;;;;;;;4973274;28;19934;-56
2022/02/12 01:55:27;;;;;;;;;;;;;;;;;;4978832;28;19922;-52
2022/02/12 01:57:53;;;;;;;;;;;;;;;;;;4972884;28;20039;-55
2022/02/12 02:00:18;;;;;;;;;;;;;;;;;;4972987;28;19921;-52
2022/02/12 02:02:44;;;;;;;;;;;;;;;;;;4979860;28;19987;-55
2022/02/12 02:05:09;;;;;;;;;;;;;;;;;;4978502;28;19973;-54
2022/02/12 02:07:35;;;;;;;;;;;;;;;;;;4971903;28;20347;-54
2022/02/12 02:10:00;;;;;;;;;;;;;;;;;;4978785;28;19921;-56
2022/02/12 02:12:26;;;;;;;;;;;;;;;;;;4977546;28;19946;-54
2022/02/12 02:14:51;;;;;;;;;;;;;;;;;;4972129;28;20518;-52
2022/02/12 02:17:18;;;;;;;;;;;;;;;;;;4987094;28;19949;-55
2022/02/12 02:19:43;;;;;;;;;;;;;;;;;;4978709;28;20383;-55
2022/02/12 02:22:09;;;;;;;;;;;;;;;;;;4978102;28;19925;-56
2022/02/12 02:24:34;;;;;;;;;;;;;;;;;;4977025;28;20336;-56
2022/02/12 02:27:00;;;;;;;;;;;;;;;;;;4978280;28;20869;-58
2022/02/12 02:29:25;;;;;;;;;;;;;;;;;;4976088;28;20359;-55
2022/02/12 02:31:51;;;;;;;;;;;;;;;;;;4978929;28;19953;-56
2022/02/12 02:34:17;;;;;;;;;;;;;;;;;;4978170;28;19948;-54
2022/02/12 02:36:42;;;;;;;;;;;;;;;;;;4979419;28;19926;-55
2022/02/12 02:39:07;;;;;;;;;;;;;;;;;;4980414;28;20299;-54
2022/02/12 02:41:33;;;;;;;;;;;;;;;;;;4978015;28;20291;-55
2022/02/12 02:43:58;;;;;;;;;;;;;;;;;;4979188;28;20280;-55
2022/02/12 02:46:24;;;;;;;;;;;;;;;;;;4978607;28;20587;-54
2022/02/12 02:48:49;;;;;;;;;;;;;;;;;;4979217;28;19952;-56
2022/02/12 02:56:42;;;;;;;;;;;;;;;;;;4978842;28;20040;-57
2022/02/12 02:59:08;;;;;;;;;;;;;;;;;;4979841;28;19929;-56
2022/02/12 03:01:35;;;;;;;;;;;;;;;;;;4978378;28;19921;-56
2022/02/12 03:04:00;;;;;;;;;;;;;;;;;;4973236;28;19976;-56
2022/02/12 03:06:26;;;;;;;;;;;;;;;;;;4977071;28;19926;-54
2022/02/12 03:08:51;;;;;;;;;;;;;;;;;;4977253;28;19921;-56
2022/02/12 03:11:17;;;;;;;;;;;;;;;;;;4976594;28;19948;-53
2022/02/12 03:13:42;;;;;;;;;;;;;;;;;;4976556;28;19925;-54
2022/02/12 03:16:11;;;;;;;;;;;;;;;;;;4971883;28;19944;-56
2022/02/12 03:18:36;;;;;;;;;;;;;;;;;;4978563;28;19925;-54
2022/02/12 03:21:02;;;;;;;;;;;;;;;;;;4977302;28;19972;-56
2022/02/12 03:23:27;;;;;;;;;;;;;;;;;;4972947;28;19921;-54
2022/02/12 03:26:03;;;;;;;;;;;;;;;;;;5045679;27;19933;-57
2022/02/12 03:28:28;;;;;;;;;;;;;;;;;;5041033;28;19928;-53
2022/02/12 03:30:54;;;;;;;;;;;;;;;;;;5042901;28;19932;-55
2022/02/12 03:33:19;;;;;;;;;;;;;;;;;;5041192;28;20275;-55
2022/02/12 03:35:46;;;;;;;;;;;;;;;;;;5040281;28;19964;-55
2022/02/12 03:38:11;;;;;;;;;;;;;;;;;;5041835;28;20362;-53
2022/02/12 03:40:36;;;;;;;;;;;;;;;;;;5039500;28;19925;-54
2022/02/12 03:43:02;;;;;;;;;;;;;;;;;;5042018;28;20016;-52
2022/02/12 03:45:27;;;;;;;;;;;;;;;;;;5041754;28;19933;-54
2022/02/12 03:47:53;;;;;;;;;;;;;;;;;;5042501;28;20132;-55
2022/02/12 03:50:18;;;;;;;;;;;;;;;;;;5039210;28;19994;-51
2022/02/12 03:52:44;;;;;;;;;;;;;;;;;;5040767;28;19971;-55
2022/02/12 03:55:09;;;;;;;;;;;;;;;;;;5042511;28;20020;-52
2022/02/12 03:57:36;;;;;;;;;;;;;;;;;;5040779;28;20012;-55
2022/02/12 04:00:02;;;;;;;;;;;;;;;;;;5039644;28;19925;-54
2022/02/12 04:02:27;;;;;;;;;;;;;;;;;;5040973;28;19921;-55
2022/02/12 04:04:52;;;;;;;;;;;;;;;;;;5043007;28;19932;-55
2022/02/12 04:07:18;;;;;;;;;;;;;;;;;;5057209;28;19928;-56
2022/02/12 04:09:44;;;;;;;;;;;;;;;;;;5042722;28;19928;-56
2022/02/12 04:12:09;;;;;;;;;;;;;;;;;;5043320;28;19921;-55
2022/02/12 04:14:35;;;;;;;;;;;;;;;;;;5055793;28;19931;-54
2022/02/12 04:17:00;;;;;;;;;;;;;;;;;;5044202;28;19921;-52
2022/02/12 04:19:26;;;;;;;;;;;;;;;;;;5044492;28;19925;-55
2022/02/12 04:21:51;;;;;;;;;;;;;;;;;;5044768;28;19952;-55
2022/02/12 04:24:17;;;;;;;;;;;;;;;;;;5047177;28;20577;-55
2022/02/12 04:26:42;;;;;;;;;;;;;;;;;;5063785;28;19920;-56
2022/02/12 04:29:08;;;;;;;;;;;;;;;;;;5063000;28;20013;-55
2022/02/12 04:31:33;;;;;;;;;;;;;;;;;;5043292;28;19932;-56
2022/02/12 04:33:59;;;;;;;;;;;;;;;;;;5063750;28;19927;-54
2022/02/12 04:36:24;;;;;;;;;;;;;;;;;;5051778;28;19924;-55
2022/02/12 04:38:49;;;;;;;;;;;;;;;;;;5048477;28;19973;-52
2022/02/12 04:41:15;;;;;;;;;;;;;;;;;;5046211;28;19935;-54
2022/02/12 04:43:40;;;;;;;;;;;;;;;;;;5048159;28;19927;-53
2022/02/12 04:46:06;;;;;;;;;;;;;;;;;;5047429;28;19920;-56
2022/02/12 04:48:31;;;;;;;;;;;;;;;;;;5047343;28;19930;-54
2022/02/12 04:50:57;;;;;;;;;;;;;;;;;;5048281;28;19936;-53
2022/02/12 04:53:22;;;;;;;;;;;;;;;;;;5047391;28;19920;-55
2022/02/12 04:55:48;;;;;;;;;;;;;;;;;;5045183;28;19920;-56
2022/02/12 04:58:14;;;;;;;;;;;;;;;;;;5029640;28;20369;-54
2022/02/12 05:00:41;;;;;;;;;;;;;;;;;;5029560;28;19954;-54
2022/02/12 05:03:07;;;;;;;;;;;;;;;;;;5045205;28;19924;-53
2022/02/12 05:05:32;;;;;;;;;;;;;;;;;;5027355;28;20006;-56
2022/02/12 05:07:58;;;;;;;;;;;;;;;;;;5027908;28;19920;-53
2022/02/12 05:10:23;;;;;;;;;;;;;;;;;;5047199;28;20412;-56
2022/02/12 05:12:49;;;;;;;;;;;;;;;;;;5047114;28;19924;-57
2022/02/12 05:15:15;;;;;;;;;;;;;;;;;;5027991;28;19921;-55
2022/02/12 05:17:41;;;;;;;;;;;;;;;;;;5044864;28;19925;-56
2022/02/12 05:20:06;;;;;;;;;;;;;;;;;;5047038;28;19917;-55
2022/02/12 05:22:32;;;;;;;;;;;;;;;;;;5027701;28;19924;-54
2022/02/12 05:24:57;;;;;;;;;;;;;;;;;;5044919;28;19982;-52
2022/02/12 05:27:23;;;;;;;;;;;;;;;;;;5047149;28;20452;-55
2022/02/12 05:29:48;;;;;;;;;;;;;;;;;;5047463;28;19925;-55
2022/02/12 05:32:14;;;;;;;;;;;;;;;;;;5026497;28;19928;-55
2022/02/12 05:34:39;;;;;;;;;;;;;;;;;;5028589;28;20012;-56
2022/02/12 05:37:05;;;;;;;;;;;;;;;;;;5047369;28;20011;-53
2022/02/12 05:39:30;;;;;;;;;;;;;;;;;;5039383;28;19961;-55
2022/02/12 05:41:56;;;;;;;;;;;;;;;;;;5060990;28;19920;-56
2022/02/12 05:44:21;;;;;;;;;;;;;;;;;;5046493;28;19932;-56
2022/02/12 05:46:47;;;;;;;;;;;;;;;;;;5047613;28;19921;-55
2022/02/12 05:49:12;;;;;;;;;;;;;;;;;;5045735;28;19983;-55
2022/02/12 05:51:38;;;;;;;;;;;;;;;;;;5046278;28;19998;-54
2022/02/12 05:54:03;;;;;;;;;;;;;;;;;;5047097;28;20523;-53
2022/02/12 05:56:29;;;;;;;;;;;;;;;;;;5047064;28;19920;-55
2022/02/12 05:58:54;;;;;;;;;;;;;;;;;;5048362;28;19927;-55
2022/02/12 06:01:20;;;;;;;;;;;;;;;;;;5045127;28;19925;-52
2022/02/12 06:03:45;;;;;;;;;;;;;;;;;;5028562;28;19920;-53
2022/02/12 06:06:11;;;;;;;;;;;;;;;;;;5046523;28;20289;-56
2022/02/12 06:08:36;;;;;;;;;;;;;;;;;;5047189;28;19931;-55
2022/02/12 06:11:04;;;;;;;;;;;;;;;;;;5029999;28;19924;-53
2022/02/12 06:13:29;;;;;;;;;;;;;;;;;;5045562;28;19956;-56
2022/02/12 06:15:55;;;;;;;;;;;;;;;;;;5028899;28;20349;-56
2022/02/12 06:18:20;;;;;;;;;;;;;;;;;;5045834;28;19924;-54
2022/02/12 06:20:46;;;;;;;;;;;;;;;;;;5028121;28;19920;-57
2022/02/12 06:23:11;;;;;;;;;;;;;;;;;;5046327;28;19932;-55
2022/02/12 06:25:37;;;;;;;;;;;;;;;;;;5024334;28;19939;-53
2022/02/12 06:28:02;;;;;;;;;;;;;;;;;;5045326;28;19968;-54
2022/02/12 06:30:27;;;;;;;;;;;;;;;;;;5046220;28;19954;-55
2022/02/12 06:32:53;;;;;;;;;;;;;;;;;;5047453;28;20393;-54
2022/02/12 06:35:19;;;;;;;;;;;;;;;;;;5045185;28;20319;-55
2022/02/12 06:37:44;;;;;;;;;;;;;;;;;;5030959;28;19928;-53
2022/02/12 06:40:10;;;;;;;;;;;;;;;;;;5049810;28;19970;-57
2022/02/12 06:42:35;;;;;;;;;;;;;;;;;;5049775;28;20454;-57
2022/02/12 06:45:01;;;;;;;;;;;;;;;;;;5054039;28;19932;-55
2022/02/12 06:47:26;;;;;;;;;;;;;;;;;;5051019;28;19936;-56
2022/02/12 06:49:52;;;;;;;;;;;;;;;;;;5047569;28;19924;-56
2022/02/12 06:52:18;;;;;;;;;;;;;;;;;;5044498;28;20511;-57
2022/02/12 06:54:43;;;;;;;;;;;;;;;;;;5045347;28;19925;-56
2022/02/12 06:57:09;;;;;;;;;;;;;;;;;;5044925;28;19967;-55
2022/02/12 06:59:36;;;;;;;;;;;;;;;;;;5044957;28;19924;-54
2022/02/12 07:02:01;;;;;;;;;;;;;;;;;;5046851;28;20025;-55
2022/02/12 07:04:30;;;;;;;;;;;;;;;;;;5044875;28;19933;-54
2022/02/12 07:06:55;;;;;;;;;;;;;;;;;;5046012;28;19959;-56
2022/02/12 07:09:20;;;;;;;;;;;;;;;;;;5046129;28;20361;-55
2022/02/12 07:11:46;;;;;;;;;;;;;;;;;;5027581;28;20401;-53
2022/02/12 07:14:11;;;;;;;;;;;;;;;;;;5044998;28;19966;-56
2022/02/12 07:16:37;;;;;;;;;;;;;;;;;;5025868;28;19977;-56
2022/02/12 07:19:02;;;;;;;;;;;;;;;;;;5045997;28;20023;-55
2022/02/12 07:21:28;;;;;;;;;;;;;;;;;;5044835;28;20042;-56
2022/02/12 07:23:53;;;;;;;;;;;;;;;;;;5045224;28;19993;-54
2022/02/12 07:26:19;;;;;;;;;;;;;;;;;;5043621;28;19927;-55
2022/02/12 07:28:44;;;;;;;;;;;;;;;;;;5046314;28;19933;-55
2022/02/12 07:31:10;;;;;;;;;;;;;;;;;;5046526;28;20370;-54
2022/02/12 07:33:35;;;;;;;;;;;;;;;;;;5045439;28;20017;-53
2022/02/12 07:36:01;;;;;;;;;;;;;;;;;;5046307;28;19967;-55
2022/02/12 07:38:26;;;;;;;;;;;;;;;;;;5044752;28;20016;-55
2022/02/12 07:40:51;;;;;;;;;;;;;;;;;;5046856;28;19924;-53
2022/02/12 07:43:17;;;;;;;;;;;;;;;;;;5046489;28;19993;-55
2022/02/12 07:45:42;;;;;;;;;;;;;;;;;;5044923;28;20012;-55
2022/02/12 07:48:08;;;;;;;;;;;;;;;;;;5061301;28;20034;-54
2022/02/12 07:50:33;;;;;;;;;;;;;;;;;;5047544;28;20015;-54
2022/02/12 07:52:59;;;;;;;;;;;;;;;;;;5046312;28;19930;-55
2022/02/12 07:55:24;;;;;;;;;;;;;;;;;;5044399;28;19979;-54
2022/02/12 07:57:50;;;;;;;;;;;;;;;;;;5046051;28;19920;-55
2022/02/12 08:00:16;;;;;;;;;;;;;;;;;;5047336;28;19927;-54
2022/02/12 08:02:42;;;;;;;;;;;;;;;;;;5044225;28;19924;-53
2022/02/12 08:05:08;;;;;;;;;;;;;;;;;;5044253;28;20313;-55
2022/02/12 08:07:37;;;;;;;;;;;;;;;;;;5043439;28;19978;-56
2022/02/12 08:11:22;;;;;;;;;;;;;;;;;;5045513;28;20282;-54
2022/02/12 08:12:48;;;;;;;;;;;;;;;;;;5049414;28;19924;-54
2022/02/12 08:15:13;;;;;;;;;;;;;;;;;;5048341;28;19921;-52
2022/02/12 08:17:39;;;;;;;;;;;;;;;;;;5048275;28;19981;-56
2022/02/12 08:20:04;;;;;;;;;;;;;;;;;;5048923;28;20011;-55
2022/02/12 08:22:29;;;;;;;;;;;;;;;;;;5048328;28;20260;-53
2022/02/12 08:24:55;;;;;;;;;;;;;;;;;;5060321;28;19933;-53
2022/02/12 08:27:22;;;;;;;;;;;;;;;;;;5028956;28;19945;-54
2022/02/12 08:29:48;;;;;;;;;;;;;;;;;;5029596;28;19991;-52
2022/02/12 08:32:14;;;;;;;;;;;;;;;;;;5030414;28;20338;-53
2022/02/12 08:34:42;;;;;;;;;;;;;;;;;;5029662;28;19931;-55
2022/02/12 08:37:07;;;;;;;;;;;;;;;;;;5029501;28;19921;-54
2022/02/12 08:39:33;;;;;;;;;;;;;;;;;;5028843;28;19925;-53
2022/02/12 08:41:58;;;;;;;;;;;;;;;;;;5030959;28;19921;-56
2022/02/12 08:44:23;;;;;;;;;;;;;;;;;;5028352;28;20007;-56
2022/02/12 08:46:49;;;;;;;;;;;;;;;;;;5030923;28;19925;-55
2022/02/12 08:49:14;;;;;;;;;;;;;;;;;;5030519;28;20034;-56
2022/02/12 08:51:40;;;;;;;;;;;;;;;;;;5029808;28;19925;-54
2022/02/12 08:54:05;;;;;;;;;;;;;;;;;;5030655;28;19963;-53
2022/02/12 08:56:31;;;;;;;;;;;;;;;;;;5030325;28;19964;-56
2022/02/12 08:58:56;;;;;;;;;;;;;;;;;;5031178;28;20397;-55
2022/02/12 09:01:22;;;;;;;;;;;;;;;;;;5031316;28;19925;-54
2022/02/12 09:03:47;;;;;;;;;;;;;;;;;;5032342;28;20306;-53
2022/02/12 09:06:12;;;;;;;;;;;;;;;;;;5030534;28;19932;-55
2022/02/12 09:08:38;;;;;;;;;;;;;;;;;;5028388;28;19925;-55
2022/02/12 09:11:03;;;;;;;;;;;;;;;;;;5029215;28;20008;-54
2022/02/12 09:13:29;;;;;;;;;;;;;;;;;;5029767;28;19933;-56
2022/02/12 09:15:55;;;;;;;;;;;;;;;;;;5029205;28;19921;-55
2022/02/12 09:18:20;;;;;;;;;;;;;;;;;;5026209;28;19928;-55
2022/02/12 09:20:46;;;;;;;;;;;;;;;;;;5028113;28;19921;-53
2022/02/12 09:23:12;;;;;;;;;;;;;;;;;;5025518;28;19929;-54
2022/02/12 09:25:38;;;;;;;;;;;;;;;;;;5026263;28;19936;-53
2022/02/12 09:28:03;;;;;;;;;;;;;;;;;;5029045;28;19921;-53
2022/02/12 09:30:29;;;;;;;;;;;;;;;;;;5026440;28;20416;-53
2022/02/12 09:32:56;;;;;;;;;;;;;;;;;;5028850;28;19925;-55
2022/02/12 09:35:22;;;;;;;;;;;;;;;;;;5026359;28;20305;-53
2022/02/12 09:37:47;;;;;;;;;;;;;;;;;;5028713;28;19982;-55
2022/02/12 09:40:13;;;;;;;;;;;;;;;;;;5026488;28;20504;-54
2022/02/12 09:42:38;;;;;;;;;;;;;;;;;;5026496;28;19921;-55
2022/02/12 09:45:04;;;;;;;;;;;;;;;;;;5042180;28;20357;-52
2022/02/12 09:47:29;;;;;;;;;;;;;;;;;;5028551;28;19928;-55
2022/02/12 09:49:54;;;;;;;;;;;;;;;;;;5029645;28;19975;-52
2022/02/12 09:52:20;;;;;;;;;;;;;;;;;;5026848;28;19978;-54
2022/02/12 09:54:45;;;;;;;;;;;;;;;;;;5027439;28;19932;-52
2022/02/12 09:57:11;;;;;;;;;;;;;;;;;;5028488;28;19927;-54
2022/02/12 09:59:37;;;;;;;;;;;;;;;;;;5027415;28;19932;-52
2022/02/12 10:02:02;;;;;;;;;;;;;;;;;;5029646;28;20423;-53
2022/02/12 10:04:29;;;;;;;;;;;;;;;;;;5028519;28;20684;-55
2022/02/12 10:06:54;;;;;;;;;;;;;;;;;;5031444;28;19943;-55
2022/02/12 10:09:20;;;;;;;;;;;;;;;;;;5032664;28;19926;-56
2022/02/12 10:11:45;;;;;;;;;;;;;;;;;;5032159;28;19932;-52
2022/02/12 10:14:11;;;;;;;;;;;;;;;;;;5027722;28;19964;-52
2022/02/12 10:16:36;;;;;;;;;;;;;;;;;;5024520;28;20008;-54
2022/02/12 10:19:01;;;;;;;;;;;;;;;;;;5026992;28;19964;-55
2022/02/12 10:21:29;;;;;;;;;;;;;;;;;;5041016;28;19921;-55
2022/02/12 10:23:55;;;;;;;;;;;;;;;;;;5026502;28;20039;-54
2022/02/12 10:26:21;;;;;;;;;;;;;;;;;;5025192;28;19929;-56
2022/02/12 10:28:47;;;;;;;;;;;;;;;;;;5027228;28;20404;-55
2022/02/12 10:31:12;;;;;;;;;;;;;;;;;;5026496;28;19932;-56
2022/02/12 10:33:38;;;;;;;;;;;;;;;;;;5024928;28;19921;-55
2022/02/12 10:36:03;;;;;;;;;;;;;;;;;;5026242;28;19925;-54
2022/02/12 10:38:29;;;;;;;;;;;;;;;;;;5025175;28;19921;-55
2022/02/12 10:40:55;;;;;;;;;;;;;;;;;;5026663;28;19932;-56
2022/02/12 10:43:20;;;;;;;;;;;;;;;;;;5024039;28;20566;-55
2022/02/12 10:45:46;;;;;;;;;;;;;;;;;;5025985;28;19928;-54
2022/02/12 10:48:12;;;;;;;;;;;;;;;;;;5025021;28;20425;-53
2022/02/12 10:50:37;;;;;;;;;;;;;;;;;;5023500;28;20027;-53
2022/02/12 10:53:03;;;;;;;;;;;;;;;;;;5025582;28;19917;-54
2022/02/12 10:55:30;;;;;;;;;;;;;;;;;;5024797;28;19924;-52
2022/02/12 10:57:55;;;;;;;;;;;;;;;;;;5024719;28;19933;-55
2022/02/12 11:00:21;;;;;;;;;;;;;;;;;;5026337;28;19921;-54
2022/02/12 11:02:46;;;;;;;;;;;;;;;;;;5025898;28;19925;-54
2022/02/12 11:05:12;;;;;;;;;;;;;;;;;;5024809;28;19940;-55
2022/02/12 11:07:37;;;;;;;;;;;;;;;;;;5024728;28;19921;-56
2022/02/12 11:10:03;;;;;;;;;;;;;;;;;;5025669;28;19921;-55
2022/02/12 11:12:29;;;;;;;;;;;;;;;;;;5026180;28;20051;-56
2022/02/12 11:14:55;;;;;;;;;;;;;;;;;;5025315;28;20389;-55
2022/02/12 11:17:22;;;;;;;;;;;;;;;;;;5025278;28;20394;-56
2022/02/12 11:19:47;;;;;;;;;;;;;;;;;;5027236;28;19932;-56
2022/02/12 11:22:13;;;;;;;;;;;;;;;;;;5026714;28;19921;-56
2022/02/12 11:24:39;;;;;;;;;;;;;;;;;;5023912;28;19933;-55
2022/02/12 11:27:04;;;;;;;;;;;;;;;;;;5026132;28;20740;-55
2022/02/12 11:29:40;;;;;;;;;;;;;;;;;;5025432;28;19971;-54
2022/02/12 11:32:06;;;;;;;;;;;;;;;;;;5025680;28;20374;-56
2022/02/12 11:34:31;;;;;;;;;;;;;;;;;;5024131;28;19925;-55
2022/02/12 11:36:57;;;;;;;;;;;;;;;;;;5026034;28;19931;-56
2022/02/12 11:39:22;;;;;;;;;;;;;;;;;;5025235;28;19921;-53
2022/02/12 11:41:48;;;;;;;;;;;;;;;;;;5024952;28;19925;-55
2022/02/12 11:44:13;;;;;;;;;;;;;;;;;;5024805;28;20048;-54
2022/02/12 11:46:38;;;;;;;;;;;;;;;;;;5026773;28;19925;-56
2022/02/12 11:49:04;;;;;;;;;;;;;;;;;;5030088;28;19927;-56
2022/02/12 11:51:29;;;;;;;;;;;;;;;;;;5030026;28;19921;-53
2022/02/12 11:53:56;;;;;;;;;;;;;;;;;;5028385;28;19941;-54
2022/02/12 11:56:22;;;;;;;;;;;;;;;;;;5029248;28;20289;-55
2022/02/12 11:58:48;;;;;;;;;;;;;;;;;;5029189;28;20334;-55
2022/02/12 12:01:13;;;;;;;;;;;;;;;;;;5029474;28;20067;-54
2022/02/12 12:03:39;;;;;;;;;;;;;;;;;;5027574;28;19996;-56
2022/02/12 12:06:04;;;;;;;;;;;;;;;;;;5028701;28;19932;-56
2022/02/12 12:08:30;;;;;;;;;;;;;;;;;;5026016;28;19920;-54
2022/02/12 12:10:55;;;;;;;;;;;;;;;;;;5029295;28;20019;-55
2022/02/12 12:13:26;;;;;;;;;;;;;;;;;;5026604;28;19956;-55
2022/02/12 12:15:51;;;;;;;;;;;;;;;;;;5028113;28;19917;-55
2022/02/12 12:18:16;;;;;;;;;;;;;;;;;;5025794;28;19925;-55
2022/02/12 12:20:42;;;;;;;;;;;;;;;;;;5029132;28;19925;-56
2022/02/12 12:23:09;;;;;;;;;;;;;;;;;;5029117;28;19974;-56
2022/02/12 12:25:34;;;;;;;;;;;;;;;;;;5027970;28;19929;-56
2022/02/12 12:28:03;;;;;;;;;;;;;;;;;;5028461;28;19920;-56
2022/02/12 12:30:47;;;;;;;;;;;;;;;;;;5027287;28;19933;-56
2022/02/12 12:33:12;;;;;;;;;;;;;;;;;;5029273;28;20906;-56
2022/02/12 12:35:38;;;;;;;;;;;;;;;;;;5026540;28;19925;-55
2022/02/12 12:38:06;;;;;;;;;;;;;;;;;;5028011;28;19925;-55
2022/02/12 12:40:32;;;;;;;;;;;;;;;;;;5027157;28;19925;-53
2022/02/12 12:42:57;;;;;;;;;;;;;;;;;;5028235;28;20002;-55
2022/02/12 12:45:23;;;;;;;;;;;;;;;;;;5028037;28;19965;-54
2022/02/12 12:47:48;;;;;;;;;;;;;;;;;;5027704;28;19925;-56
2022/02/12 12:50:14;;;;;;;;;;;;;;;;;;5029698;28;20008;-56
2022/02/12 12:52:39;;;;;;;;;;;;;;;;;;5026992;28;19925;-57
2022/02/12 12:55:04;;;;;;;;;;;;;;;;;;5042911;28;19943;-56
2022/02/12 12:57:30;;;;;;;;;;;;;;;;;;5026613;28;19956;-57
2022/02/12 12:59:56;;;;;;;;;;;;;;;;;;5027272;28;19925;-55
2022/02/12 13:02:21;;;;;;;;;;;;;;;;;;5030526;28;19925;-56
2022/02/12 13:04:47;;;;;;;;;;;;;;;;;;5030297;28;19933;-53
2022/02/12 13:07:12;;;;;;;;;;;;;;;;;;5029247;28;20022;-56
2022/02/12 13:09:38;;;;;;;;;;;;;;;;;;5031877;28;19925;-56
2022/02/12 13:12:03;;;;;;;;;;;;;;;;;;5033598;28;19944;-56
2022/02/12 13:14:28;;;;;;;;;;;;;;;;;;5032141;28;20011;-56
2022/02/12 13:16:55;;;;;;;;;;;;;;;;;;5031412;28;19921;-55
2022/02/12 13:19:21;;;;;;;;;;;;;;;;;;5031068;28;19921;-56
2022/02/12 13:21:46;;;;;;;;;;;;;;;;;;5031920;28;19925;-56
2022/02/12 13:24:12;;;;;;;;;;;;;;;;;;5032270;28;20024;-56
2022/02/12 13:26:39;;;;;;;;;;;;;;;;;;5032427;28;19948;-56
2022/02/12 13:29:04;;;;;;;;;;;;;;;;;;5031201;28;19963;-57
2022/02/12 13:31:30;;;;;;;;;;;;;;;;;;5030398;28;19928;-56
2022/02/12 13:33:55;;;;;;;;;;;;;;;;;;5030112;28;19917;-56
2022/02/12 13:36:21;;;;;;;;;;;;;;;;;;5025993;28;19925;-56
2022/02/12 13:38:46;;;;;;;;;;;;;;;;;;5027654;28;19921;-53
2022/02/12 13:41:12;;;;;;;;;;;;;;;;;;5030142;28;20437;-54
2022/02/12 13:43:37;;;;;;;;;;;;;;;;;;5028580;28;20550;-56
2022/02/12 13:46:03;;;;;;;;;;;;;;;;;;5028530;28;19936;-56
2022/02/12 13:48:28;;;;;;;;;;;;;;;;;;5023149;28;19925;-55
2022/02/12 13:50:54;;;;;;;;;;;;;;;;;;5027030;28;21665;-55
2022/02/12 13:53:22;;;;;;;;;;;;;;;;;;5027270;28;19925;-55
2022/02/12 13:55:48;;;;;;;;;;;;;;;;;;5027997;28;20461;-55
2022/02/12 13:58:13;;;;;;;;;;;;;;;;;;5026937;28;19936;-55
2022/02/12 14:00:39;;;;;;;;;;;;;;;;;;5026951;28;19921;-55
2022/02/12 14:03:05;;;;;;;;;;;;;;;;;;5025644;28;19967;-55
2022/02/12 14:05:30;;;;;;;;;;;;;;;;;;5025369;28;20326;-56
2022/02/12 14:07:57;;;;;;;;;;;;;;;;;;5025747;28;19964;-57
2022/02/12 14:10:26;;;;;;;;;;;;;;;;;;5027527;28;19921;-54
2022/02/12 14:12:51;;;;;;;;;;;;;;;;;;5030231;28;19928;-56
2022/02/12 14:15:17;;;;;;;;;;;;;;;;;;5029527;28;19925;-55
2022/02/12 14:17:42;;;;;;;;;;;;;;;;;;5031170;28;19967;-55
2022/02/12 14:20:09;;;;;;;;;;;;;;;;;;5031950;28;19935;-56
2022/02/12 14:22:34;;;;;;;;;;;;;;;;;;5026671;28;19928;-56
2022/02/12 14:25:00;;;;;;;;;;;;;;;;;;5026531;28;19932;-57
2022/02/12 14:27:25;;;;;;;;;;;;;;;;;;5024617;28;19921;-55
2022/02/12 14:29:51;;;;;;;;;;;;;;;;;;5024650;28;20487;-56
2022/02/12 14:32:16;;;;;;;;;;;;;;;;;;5024728;28;19921;-54
2022/02/12 14:34:42;;;;;;;;;;;;;;;;;;5025753;28;20485;-54
2022/02/12 14:37:07;;;;;;;;;;;;;;;;;;5024468;28;20388;-55
2022/02/12 14:39:32;;;;;;;;;;;;;;;;;;5025989;28;19931;-55
2022/02/12 14:41:58;;;;;;;;;;;;;;;;;;5025899;28;19921;-54
2022/02/12 14:44:23;;;;;;;;;;;;;;;;;;5025404;28;20051;-54
2022/02/12 14:46:49;;;;;;;;;;;;;;;;;;5024718;28;19925;-55
2022/02/12 14:49:15;;;;;;;;;;;;;;;;;;5025502;28;20009;-55
2022/02/12 14:51:40;;;;;;;;;;;;;;;;;;5029332;28;19977;-55
2022/02/12 14:54:05;;;;;;;;;;;;;;;;;;5057490;28;19920;-55
2022/02/12 14:56:31;;;;;;;;;;;;;;;;;;5043639;28;20386;-55
2022/02/12 14:58:57;;;;;;;;;;;;;;;;;;5046598;28;19983;-55
2022/02/12 15:01:22;;;;;;;;;;;;;;;;;;5044418;28;19925;-55
2022/02/12 15:03:47;;;;;;;;;;;;;;;;;;5044660;28;20392;-54
2022/02/12 15:06:14;;;;;;;;;;;;;;;;;;5045128;28;19932;-55
2022/02/12 15:08:39;;;;;;;;;;;;;;;;;;5044052;28;19924;-56
2022/02/12 15:11:05;;;;;;;;;;;;;;;;;;5047648;28;19974;-53
2022/02/12 15:13:30;;;;;;;;;;;;;;;;;;5027023;28;19920;-55
2022/02/12 15:15:56;;;;;;;;;;;;;;;;;;5045591;28;19932;-53
2022/02/12 15:18:21;;;;;;;;;;;;;;;;;;5024821;28;19924;-55
2022/02/12 15:20:47;;;;;;;;;;;;;;;;;;5044844;28;19999;-55
2022/02/12 15:23:12;;;;;;;;;;;;;;;;;;5045524;28;19924;-54
2022/02/12 15:25:38;;;;;;;;;;;;;;;;;;5044413;28;19936;-54
2022/02/12 15:28:03;;;;;;;;;;;;;;;;;;5044668;28;19932;-54
2022/02/12 15:30:29;;;;;;;;;;;;;;;;;;5050265;28;19932;-54
2022/02/12 15:32:54;;;;;;;;;;;;;;;;;;5044735;28;19936;-55
2022/02/12 15:35:20;;;;;;;;;;;;;;;;;;5044834;28;20448;-55
2022/02/12 15:37:45;;;;;;;;;;;;;;;;;;5042011;28;19970;-55
2022/02/12 15:40:11;;;;;;;;;;;;;;;;;;5045794;28;19921;-56
2022/02/12 15:42:36;;;;;;;;;;;;;;;;;;5043778;28;19965;-54
2022/02/12 15:45:02;;;;;;;;;;;;;;;;;;5043991;28;19937;-55
2022/02/12 15:47:27;;;;;;;;;;;;;;;;;;5043503;28;21843;-52
2022/02/12 15:49:53;;;;;;;;;;;;;;;;;;5045929;28;19921;-56
2022/02/12 15:52:19;;;;;;;;;;;;;;;;;;5044410;28;19958;-55
2022/02/12 15:54:44;;;;;;;;;;;;;;;;;;5044421;28;19955;-55
2022/02/12 15:57:09;;;;;;;;;;;;;;;;;;5044267;28;19932;-53
2022/02/12 15:59:35;;;;;;;;;;;;;;;;;;5044820;28;19921;-55
2022/02/12 16:02:00;;;;;;;;;;;;;;;;;;5045075;28;21611;-52
2022/02/12 16:04:26;;;;;;;;;;;;;;;;;;5043411;28;19925;-53
2022/02/12 16:06:51;;;;;;;;;;;;;;;;;;5046053;28;20398;-55
2022/02/12 16:09:17;;;;;;;;;;;;;;;;;;5046277;28;20340;-54
2022/02/12 16:11:42;;;;;;;;;;;;;;;;;;5045004;28;19916;-55
2022/02/12 16:14:08;;;;;;;;;;;;;;;;;;5045271;28;19935;-53
2022/02/12 16:16:34;;;;;;;;;;;;;;;;;;5044772;28;20039;-56
2022/02/12 16:18:59;;;;;;;;;;;;;;;;;;5045091;28;19924;-53
2022/02/12 16:21:24;;;;;;;;;;;;;;;;;;5026904;28;19966;-52
2022/02/12 16:23:50;;;;;;;;;;;;;;;;;;5044490;28;19928;-54
2022/02/12 16:26:15;;;;;;;;;;;;;;;;;;5044879;28;19929;-55
2022/02/12 16:28:41;;;;;;;;;;;;;;;;;;5026374;28;21735;-55
2022/02/12 16:31:07;;;;;;;;;;;;;;;;;;5043976;28;19982;-56
2022/02/12 16:33:33;;;;;;;;;;;;;;;;;;5045350;28;19924;-53
2022/02/12 16:35:58;;;;;;;;;;;;;;;;;;5047898;28;19986;-56
2022/02/12 16:38:24;;;;;;;;;;;;;;;;;;5048430;28;19925;-54
2022/02/12 16:40:49;;;;;;;;;;;;;;;;;;5033372;28;19933;-55